Time;durP1;ratioP1;P1;durP2;ratioP2;P2;SDS_P1;SDS_P2;PMS_P1;PMS_P2;Temp;Humidity;BMP_temperature;BMP_pressure;BME280_temperature;BME280_humidity;BME280_pressure;Samples;Min_cycle;Max_cycle;Signal;HPM_P1;HPM_P2
2021/03/27 00:02:09;;;;;;;5.83;2.03;;;;;5.70;100938.00;;;;9602197;30;20265;-75
2021/03/27 00:07:20;;;;;;;5.03;1.80;;;;;5.70;100919.00;;;;9607895;30;20256;-76
2021/03/27 00:12:36;;;;;;;5.33;2.30;;;;;5.70;100915.00;;;;9624260;30;20217;-75
2021/03/27 00:17:44;;;;;;;5.33;2.40;;;;;5.70;100925.00;;;;9608482;30;20209;-76
2021/03/27 00:22:59;;;;;;;6.27;2.30;;;;;5.70;100942.00;;;;9608789;30;20239;-77
2021/03/27 00:28:07;;;;;;;6.60;2.50;;;;;5.70;100942.00;;;;9622517;30;20847;-76
2021/03/27 00:33:09;;;;;;;5.83;3.17;;;;;5.70;100942.00;;;;9636523;30;20220;-75
2021/03/27 00:38:20;;;;;;;8.50;2.03;;;;;5.80;100938.00;;;;9607692;30;20316;-76
2021/03/27 00:43:27;;;;;;;7.47;2.50;;;;;5.80;100954.00;;;;9623226;30;20197;-75
2021/03/27 00:48:55;;;;;;;5.67;1.83;;;;;5.80;100967.00;;;;9621385;30;20785;-76
2021/03/27 00:54:35;;;;;;;5.43;2.10;;;;;5.70;100965.00;;;;9621183;30;20205;-76
2021/03/27 00:59:48;;;;;;;8.97;3.03;;;;;5.70;100969.00;;;;9607676;30;20229;-76
2021/03/27 01:05:01;;;;;;;4.20;2.30;;;;;5.70;100968.00;;;;9593785;30;20215;-76
2021/03/27 01:10:21;;;;;;;6.43;2.77;;;;;5.70;100956.00;;;;9620963;30;20229;-76
2021/03/27 01:15:49;;;;;;;6.67;2.20;;;;;5.60;100958.00;;;;9632676;30;20701;-76
2021/03/27 01:20:56;;;;;;;5.93;2.13;;;;;5.60;100966.00;;;;9620923;30;20211;-75
2021/03/27 01:26:00;;;;;;;8.50;2.37;;;;;5.50;100974.00;;;;9619966;30;20205;-75
2021/03/27 01:31:20;;;;;;;3.50;2.20;;;;;5.40;100976.00;;;;9634095;30;20954;-76
2021/03/27 01:36:46;;;;;;;8.13;2.63;;;;;5.30;100983.00;;;;9621779;30;20216;-76
2021/03/27 01:42:07;;;;;;;8.93;2.57;;;;;5.30;100987.00;;;;9601801;30;20214;-75
2021/03/27 01:47:31;;;;;;;12.03;1.87;;;;;5.30;100998.00;;;;9605928;30;20241;-75
2021/03/27 01:53:15;;;;;;;8.20;2.03;;;;;5.30;100994.00;;;;9620869;30;20198;-75
2021/03/27 01:58:29;;;;;;;8.87;2.27;;;;;5.20;101002.00;;;;9619508;30;20247;-76
2021/03/27 02:03:38;;;;;;;7.03;1.77;;;;;5.20;101008.00;;;;9619059;30;20280;-75
2021/03/27 02:09:17;;;;;;;11.07;2.23;;;;;5.10;101017.00;;;;9619067;30;20221;-75
2021/03/27 02:14:51;;;;;;;10.17;2.17;;;;;5.20;101013.00;;;;9590303;30;20268;-75
2021/03/27 02:19:59;;;;;;;7.33;2.13;;;;;5.20;101021.00;;;;9632450;30;20194;-75
2021/03/27 02:25:20;;;;;;;21.07;3.23;;;;;5.30;101012.00;;;;9618047;30;20236;-75
2021/03/27 02:30:23;;;;;;;5.30;2.10;;;;;5.40;101008.00;;;;9619236;30;20225;-75
2021/03/27 02:35:28;;;;;;;10.70;2.97;;;;;5.50;101017.00;;;;9632088;30;20241;-75
2021/03/27 02:40:40;;;;;;;10.93;2.87;;;;;5.50;101006.00;;;;9589443;30;20209;-75
2021/03/27 02:46:13;;;;;;;12.07;2.90;;;;;5.60;101009.00;;;;9603726;30;20213;-75
2021/03/27 02:51:21;;;;;;;9.47;2.30;;;;;5.60;101005.00;;;;9600418;30;20662;-75
2021/03/27 02:56:53;;;;;;;10.83;3.20;;;;;5.60;101028.00;;;;9632322;30;20209;-75
2021/03/27 03:02:10;;;;;;;7.13;2.00;;;;;5.60;101035.00;;;;9632049;30;20276;-76
2021/03/27 03:07:31;;;;;;;12.20;2.90;;;;;5.50;101036.00;;;;9602910;30;20205;-76
2021/03/27 03:12:49;;;;;;;10.00;2.73;;;;;5.50;101047.00;;;;9617771;30;20201;-76
2021/03/27 03:18:02;;;;;;;12.07;3.37;;;;;5.60;101063.00;;;;9617296;30;20276;-76
2021/03/27 03:23:19;;;;;;;10.40;3.03;;;;;5.70;101062.00;;;;9603522;30;20209;-76
2021/03/27 03:28:30;;;;;;;8.77;3.27;;;;;5.70;101074.00;;;;9617982;30;20224;-76
2021/03/27 03:33:50;;;;;;;17.90;3.57;;;;;5.80;101074.00;;;;9616798;30;20217;-76
2021/03/27 03:39:12;;;;;;;14.00;3.23;;;;;5.80;101078.00;;;;9633278;30;20228;-76
2021/03/27 03:44:48;;;;;;;12.37;2.90;;;;;5.70;101083.00;;;;9624136;30;20264;-76
2021/03/27 03:50:09;;;;;;;10.63;2.97;;;;;5.50;101084.00;;;;9609934;30;20675;-76
2021/03/27 03:55:30;;;;;;;16.00;2.50;;;;;5.40;101107.00;;;;9608941;30;20219;-76
2021/03/27 04:00:46;;;;;;;17.13;3.90;;;;;5.40;101115.00;;;;9622943;30;20237;-76
2021/03/27 04:06:03;;;;;;;9.43;2.67;;;;;5.50;101124.00;;;;9609285;30;20213;-76
2021/03/27 04:11:36;;;;;;;13.43;2.40;;;;;5.60;101140.00;;;;9608787;30;20224;-76
2021/03/27 04:16:42;;;;;;;11.60;2.97;;;;;5.60;101134.00;;;;9623138;30;20205;-76
2021/03/27 04:22:12;;;;;;;11.07;2.47;;;;;5.60;101146.00;;;;9624242;30;20212;-76
2021/03/27 04:27:23;;;;;;;9.60;2.30;;;;;5.70;101136.00;;;;9621885;30;20212;-76
2021/03/27 04:32:49;;;;;;;13.37;3.63;;;;;5.70;101131.00;;;;9636273;30;20303;-75
2021/03/27 04:38:09;;;;;;;8.43;2.23;;;;;5.70;101150.00;;;;9607657;30;20570;-76
2021/03/27 04:43:20;;;;;;;6.93;1.73;;;;;5.60;101173.00;;;;9607812;30;20761;-76
2021/03/27 04:48:30;;;;;;;8.93;2.20;;;;;5.40;101180.00;;;;9607958;30;20217;-76
2021/03/27 04:53:57;;;;;;;7.43;1.77;;;;;5.20;101202.00;;;;9593636;30;20223;-76
2021/03/27 04:59:15;;;;;;;6.83;1.60;;;;;5.00;101183.00;;;;9565519;30;20244;-76
2021/03/27 05:04:28;;;;;;;9.67;2.40;;;;;4.70;101188.00;;;;9621422;30;20279;-76
2021/03/27 05:09:48;;;;;;;0.80;0.60;;;;;4.40;101194.00;;;;9607297;30;20256;-75
2021/03/27 05:15:06;;;;;;;3.57;1.30;;;;;4.20;101215.00;;;;9621414;30;20219;-75
2021/03/27 05:20:31;;;;;;;4.53;1.20;;;;;4.20;101225.00;;;;9620624;30;20209;-75
2021/03/27 05:25:45;;;;;;;3.90;1.63;;;;;4.40;101232.00;;;;9620547;30;20256;-76
2021/03/27 05:30:59;;;;;;;1.43;0.90;;;;;4.40;101250.00;;;;9605874;30;20237;-76
2021/03/27 05:36:15;;;;;;;2.70;1.10;;;;;4.50;101253.00;;;;9606245;30;20732;-76
2021/03/27 05:41:35;;;;;;;4.93;1.20;;;;;4.40;101260.00;;;;9621139;30;20634;-76
2021/03/27 05:46:54;;;;;;;4.10;1.40;;;;;4.40;101270.00;;;;9619929;30;20963;-75
2021/03/27 05:51:59;;;;;;;5.50;1.43;;;;;4.40;101281.00;;;;9605830;30;20571;-75
2021/03/27 05:57:26;;;;;;;7.13;1.90;;;;;4.30;101298.00;;;;9605956;30;20868;-75
2021/03/27 06:03:10;;;;;;;5.00;1.30;;;;;4.30;101319.00;;;;9618581;30;20599;-75
2021/03/27 06:08:43;;;;;;;8.70;3.40;;;;;4.50;101326.00;;;;9604961;30;20724;-75
2021/03/27 06:13:57;;;;;;;4.77;1.70;;;;;4.90;101340.00;;;;9604669;30;20562;-76
2021/03/27 06:19:07;;;;;;;7.20;1.80;;;;;5.20;101332.00;;;;9632709;30;20663;-76
2021/03/27 06:24:48;;;;;;;8.07;2.83;;;;;5.40;101342.00;;;;9605186;30;20355;-76
2021/03/27 06:29:58;;;;;;;9.53;2.07;;;;;5.70;101349.00;;;;9619120;30;20265;-76
2021/03/27 06:35:36;;;;;;;7.57;2.70;;;;;6.00;101350.00;;;;9612232;30;20568;-75
2021/03/27 06:41:08;;;;;;;13.13;3.47;;;;;6.60;101359.00;;;;9597768;30;20337;-75
2021/03/27 06:46:32;;;;;;;17.93;3.60;;;;;7.30;101368.00;;;;9596953;30;20213;-76
2021/03/27 06:52:02;;;;;;;10.93;3.77;;;;;7.30;101379.00;;;;9579620;30;20220;-75
2021/03/27 06:57:11;;;;;;;14.13;2.47;;;;;7.00;101391.00;;;;9604023;30;20251;-76
2021/03/27 07:02:46;;;;;;;11.57;2.57;;;;;6.80;101399.00;;;;9603606;30;20280;-76
2021/03/27 07:08:45;;;;;;;8.47;2.30;;;;;7.00;101396.00;;;;9617969;30;20625;-76
2021/03/27 07:13:52;;;;;;;10.67;2.50;;;;;7.40;101404.00;;;;9562660;31;20213;-76
2021/03/27 07:19:55;;;;;;;6.07;2.10;;;;;7.00;101410.00;;;;9619312;30;20216;-75
2021/03/27 07:25:40;;;;;;;8.13;2.30;;;;;7.10;101411.00;;;;9563087;30;20244;-75
2021/03/27 07:31:02;;;;;;;12.50;2.43;;;;;8.00;101422.00;;;;9607929;30;20232;-76
2021/03/27 07:36:22;;;;;;;14.57;2.17;;;;;8.30;101438.00;;;;9607661;30;20209;-75
2021/03/27 07:41:48;;;;;;;7.37;2.20;;;;;9.00;101449.00;;;;9616352;30;20627;-75
2021/03/27 07:47:28;;;;;;;13.73;2.47;;;;;9.70;101443.00;;;;9642961;30;20245;-76
2021/03/27 07:52:41;;;;;;;12.30;2.40;;;;;9.50;101455.00;;;;9642122;30;20256;-76
2021/03/27 07:58:01;;;;;;;12.20;2.53;;;;;9.40;101480.00;;;;9628707;30;20243;-76
2021/03/27 08:03:28;;;;;;;10.57;1.70;;;;;9.70;101466.00;;;;9627981;30;20205;-76
2021/03/27 08:08:41;;;;;;;8.30;2.20;;;;;10.10;101464.00;;;;9628487;30;20225;-76
2021/03/27 08:13:54;;;;;;;8.40;2.27;;;;;10.40;101483.00;;;;9614053;30;20544;-75
2021/03/27 08:19:04;;;;;;;10.43;2.80;;;;;10.50;101491.00;;;;9614026;30;20236;-76
2021/03/27 08:24:17;;;;;;;10.47;2.80;;;;;11.40;101506.00;;;;9626958;30;20216;-76
2021/03/27 08:29:43;;;;;;;7.53;2.40;;;;;11.60;101506.00;;;;9623777;30;20680;-76
2021/03/27 08:35:03;;;;;;;10.87;2.27;;;;;10.40;101536.00;;;;9615815;30;20312;-76
2021/03/27 08:40:31;;;;;;;8.87;2.37;;;;;10.00;101534.00;;;;9601654;30;20606;-76
2021/03/27 08:45:46;;;;;;;8.10;2.80;;;;;9.90;101533.00;;;;9600948;30;20214;-76
2021/03/27 08:51:07;;;;;;;10.73;2.50;;;;;10.30;101539.00;;;;9601107;30;20690;-76
2021/03/27 08:56:48;;;;;;;9.60;2.97;;;;;10.30;101562.00;;;;9598181;30;20272;-76
2021/03/27 09:01:58;;;;;;;8.90;2.30;;;;;10.50;101564.00;;;;9610877;30;20208;-76
2021/03/27 09:07:24;;;;;;;12.20;2.90;;;;;10.20;101579.00;;;;9621155;30;20253;-76
2021/03/27 09:12:55;;;;;;;7.73;2.53;;;;;10.10;101594.00;;;;9592469;30;20221;-76
2021/03/27 09:18:12;;;;;;;8.67;2.80;;;;;10.60;101603.00;;;;9606994;30;20232;-76
2021/03/27 09:23:40;;;;;;;9.17;2.60;;;;;11.40;101597.00;;;;9622238;30;20251;-76
2021/03/27 09:28:53;;;;;;;6.70;2.50;;;;;12.20;101600.00;;;;9606840;30;20312;-76
2021/03/27 09:34:09;;;;;;;11.27;2.70;;;;;10.80;101616.00;;;;9620376;30;20264;-76
2021/03/27 09:39:32;;;;;;;5.53;2.37;;;;;11.00;101623.00;;;;9605504;30;20232;-76
2021/03/27 09:45:04;;;;;;;5.20;2.00;;;;;12.20;101627.00;;;;9634262;30;20213;-76
2021/03/27 09:50:35;;;;;;;7.93;2.47;;;;;12.70;101630.00;;;;9621477;30;20233;-76
2021/03/27 09:55:48;;;;;;;9.50;2.17;;;;;13.70;101633.00;;;;9619390;30;20220;-77
2021/03/27 10:00:59;;;;;;;5.97;2.33;;;;;14.30;101656.00;;;;9620295;30;20298;-76
2021/03/27 10:06:29;;;;;;;9.63;2.40;;;;;14.50;101667.00;;;;9618958;30;20205;-76
2021/03/27 10:11:35;;;;;;;8.27;2.70;;;;;13.60;101670.00;;;;9619038;30;20233;-76
2021/03/27 10:16:41;;;;;;;4.80;1.73;;;;;14.30;101682.00;;;;9604821;30;20209;-77
2021/03/27 10:21:58;;;;;;;4.73;2.00;;;;;15.10;101683.00;;;;9605760;30;20228;-77
2021/03/27 10:27:16;;;;;;;4.60;1.57;;;;;15.40;101695.00;;;;9633074;30;20211;-76
2021/03/27 10:32:23;;;;;;;5.07;1.70;;;;;16.20;101705.00;;;;9618220;30;20221;-76
2021/03/27 10:37:43;;;;;;;4.63;1.73;;;;;15.80;101705.00;;;;9584663;31;20210;-76
2021/03/27 10:43:19;;;;;;;8.20;2.63;;;;;16.00;101715.00;;;;9583468;30;20201;-76
2021/03/27 10:48:45;;;;;;;5.17;1.80;;;;;14.90;101735.00;;;;9606148;30;20570;-76
2021/03/27 10:54:41;;;;;;;6.63;2.03;;;;;14.90;101720.00;;;;9602783;30;20267;-76
2021/03/27 10:59:59;;;;;;;6.20;1.83;;;;;13.50;101747.00;;;;9592059;30;20351;-76
2021/03/27 11:05:19;;;;;;;4.67;1.90;;;;;13.00;101747.00;;;;9617770;30;20208;-76
2021/03/27 11:10:23;;;;;;;6.90;2.10;;;;;13.00;101751.00;;;;9616595;30;20224;-76
2021/03/27 11:15:43;;;;;;;8.23;2.10;;;;;13.30;101754.00;;;;9617641;30;20212;-75
2021/03/27 11:21:01;;;;;;;6.17;2.67;;;;;12.60;101757.00;;;;9603147;30;20224;-75
2021/03/27 11:26:29;;;;;;;4.23;2.10;;;;;12.50;101766.00;;;;9616273;30;20205;-75
2021/03/27 11:31:51;;;;;;;2.37;1.37;;;;;13.20;101763.00;;;;9630675;30;20240;-75
2021/03/27 11:37:10;;;;;;;7.13;1.83;;;;;14.20;101768.00;;;;9602520;30;20209;-76
2021/03/27 11:42:37;;;;;;;4.87;1.47;;;;;13.80;101764.00;;;;9602462;30;20867;-75
2021/03/27 11:48:03;;;;;;;4.93;1.67;;;;;14.10;101771.00;;;;9617994;30;20209;-76
2021/03/27 11:53:15;;;;;;;4.27;1.57;;;;;14.10;101767.00;;;;9616256;30;20323;-77
2021/03/27 11:59:42;;;;;;;9.50;2.10;;;;;15.70;101788.00;;;;9617738;30;20241;-76
2021/03/27 12:04:21;;;;;;;3.67;1.33;;;;;14.40;101793.00;;;;9622013;30;20208;-77
2021/03/27 12:09:34;;;;;;;4.83;1.33;;;;;12.70;101809.00;;;;9589130;30;20589;-76
2021/03/27 12:14:52;;;;;;;4.70;1.97;;;;;12.90;101789.00;;;;9622638;30;20213;-76
2021/03/27 12:20:07;;;;;;;4.00;1.50;;;;;14.60;101800.00;;;;9622212;30;20931;-76
2021/03/27 12:25:12;;;;;;;4.97;1.47;;;;;15.20;101812.00;;;;9622090;30;20223;-77
2021/03/27 12:30:29;;;;;;;3.03;1.23;;;;;16.20;101797.00;;;;9608035;30;20229;-76
2021/03/27 12:35:54;;;;;;;5.73;1.50;;;;;14.50;101823.00;;;;9621713;30;20209;-76
2021/03/27 12:41:12;;;;;;;4.17;1.40;;;;;13.50;101822.00;;;;9606349;30;20212;-76
2021/03/27 12:46:25;;;;;;;3.10;1.27;;;;;14.30;101833.00;;;;9597367;30;20323;-76
2021/03/27 12:51:44;;;;;;;5.50;1.73;;;;;14.80;101823.00;;;;9635049;30;20217;-76
2021/03/27 12:57:15;;;;;;;4.47;1.37;;;;;15.10;101820.00;;;;9620488;30;20232;-76
2021/03/27 13:02:48;;;;;;;3.77;1.50;;;;;15.80;101820.00;;;;9572062;30;20391;-76
2021/03/27 13:08:08;;;;;;;3.17;1.50;;;;;16.10;101827.00;;;;9599258;30;20288;-77
2021/03/27 13:13:53;;;;;;;7.77;1.80;;;;;14.90;101834.00;;;;9616979;30;20239;-76
2021/03/27 13:18:55;;;;;;;7.50;1.70;;;;;14.10;101830.00;;;;9620853;30;20217;-76
2021/03/27 13:24:01;;;;;;;5.10;1.67;;;;;13.80;101829.00;;;;9618568;30;20213;-77
2021/03/27 13:29:32;;;;;;;3.70;1.40;;;;;13.90;101803.00;;;;9608432;30;20222;-76
2021/03/27 13:34:40;;;;;;;3.47;1.37;;;;;14.80;101841.00;;;;9595608;30;20221;-76
2021/03/27 13:39:59;;;;;;;4.90;1.60;;;;;16.30;101839.00;;;;9611347;30;20268;-77
2021/03/27 13:45:08;;;;;;;5.50;1.83;;;;;15.90;101849.00;;;;9633794;30;20610;-76
2021/03/27 13:50:34;;;;;;;4.43;1.43;;;;;15.40;101861.00;;;;9619360;30;20229;-76
2021/03/27 13:55:58;;;;;;;11.90;2.10;;;;;14.00;101876.00;;;;9605984;30;20209;-76
2021/03/27 14:01:15;;;;;;;7.87;2.10;;;;;12.80;101865.00;;;;9619409;30;20233;-76
2021/03/27 14:06:20;;;;;;;4.27;1.60;;;;;12.70;101874.00;;;;9633733;30;20577;-76
2021/03/27 14:11:29;;;;;;;5.00;1.67;;;;;13.20;101888.00;;;;9615941;30;20606;-76
2021/03/27 14:16:42;;;;;;;7.50;1.57;;;;;18.10;101864.00;;;;9569802;31;20254;-76
2021/03/27 14:22:32;;;;;;;5.53;1.73;;;;;21.90;101856.00;;;;9582954;30;20224;-77
2021/03/27 14:27:49;;;;;;;4.87;1.43;;;;;19.90;101864.00;;;;9594601;30;20383;-76
2021/03/27 14:33:35;;;;;;;5.50;1.57;;;;;20.40;101894.00;;;;9617976;30;20220;-76
2021/03/27 14:39:00;;;;;;;5.80;1.30;;;;;18.70;101890.00;;;;9631313;30;20201;-76
2021/03/27 14:44:15;;;;;;;5.77;1.50;;;;;17.20;101874.00;;;;9611732;30;20240;-76
2021/03/27 14:49:21;;;;;;;6.30;1.43;;;;;19.40;101882.00;;;;9617596;30;20216;-77
2021/03/27 14:54:45;;;;;;;5.13;1.98;;;;;21.00;101906.00;;;;9611552;30;20209;-76
2021/03/27 14:59:54;;;;;;;7.03;2.37;;;;;17.80;101874.00;;;;9623598;30;20228;-76
2021/03/27 15:05:02;;;;;;;6.77;1.80;;;;;14.40;101911.00;;;;9631905;30;20204;-77
2021/03/27 15:10:33;;;;;;;4.03;1.53;;;;;13.20;101919.00;;;;9641714;30;20737;-77
2021/03/27 15:16:01;;;;;;;4.83;1.37;;;;;13.30;101914.00;;;;9618152;30;20224;-77
2021/03/27 15:21:06;;;;;;;4.70;1.27;;;;;12.50;101916.00;;;;9606178;30;20221;-76
2021/03/27 15:32:27;;;;;;;3.57;1.47;;;;;13.20;101909.00;;;;9612888;30;20974;-77
2021/03/27 15:37:46;;;;;;;5.33;1.73;;;;;13.60;101918.00;;;;9638928;30;20229;-76
2021/03/27 15:43:20;;;;;;;6.13;1.63;;;;;13.00;101943.00;;;;9595631;30;20200;-76
2021/03/27 15:48:54;;;;;;;5.47;1.80;;;;;12.30;101946.00;;;;9622974;30;20204;-76
2021/03/27 15:54:13;;;;;;;6.70;1.63;;;;;12.10;101947.00;;;;9634401;30;20225;-77
2021/03/27 15:59:37;;;;;;;6.77;2.40;;;;;12.00;101945.00;;;;9620593;30;20249;-76
2021/03/27 16:04:48;;;;;;;6.90;1.80;;;;;11.90;101946.00;;;;9623484;30;20212;-77
2021/03/27 16:10:07;;;;;;;6.00;1.60;;;;;11.80;101943.00;;;;9622452;30;20702;-77
2021/03/27 16:15:23;;;;;;;9.20;1.93;;;;;11.80;101961.00;;;;9605385;30;20696;-76
2021/03/27 16:20:35;;;;;;;6.17;2.03;;;;;11.90;101961.00;;;;9639094;30;20670;-76
2021/03/27 16:25:43;;;;;;;7.87;1.83;;;;;11.80;101975.00;;;;9630026;30;20214;-76
2021/03/27 16:31:16;;;;;;;7.37;1.70;;;;;11.60;101964.00;;;;9633828;30;20276;-77
2021/03/27 16:36:52;;;;;;;5.70;1.63;;;;;11.90;101991.00;;;;9604392;30;20206;-77
2021/03/27 16:42:05;;;;;;;6.17;1.77;;;;;11.80;101985.00;;;;9625037;30;20257;-77
2021/03/27 16:47:18;;;;;;;5.23;1.60;;;;;12.10;101986.00;;;;9627961;30;20216;-77
2021/03/27 16:52:53;;;;;;;8.60;3.07;;;;;12.10;101989.00;;;;9627341;30;20213;-77
2021/03/27 16:58:10;;;;;;;4.67;1.33;;;;;12.10;102004.00;;;;9623254;30;20431;-77
2021/03/27 17:03:17;;;;;;;5.43;2.00;;;;;11.90;102000.00;;;;9626694;30;20204;-76
2021/03/27 17:08:37;;;;;;;8.40;2.33;;;;;11.50;102011.00;;;;9602102;30;20216;-76
2021/03/27 17:13:59;;;;;;;7.43;2.10;;;;;11.00;102012.00;;;;9626162;30;20373;-76
2021/03/27 17:19:22;;;;;;;8.63;2.33;;;;;10.80;102021.00;;;;9613635;30;20734;-77
2021/03/27 17:24:43;;;;;;;8.07;1.83;;;;;10.80;102013.00;;;;9621894;30;20221;-76
2021/03/27 17:30:14;;;;;;;10.57;2.10;;;;;10.70;102022.00;;;;9606706;30;20223;-77
2021/03/27 17:35:26;;;;;;;7.23;2.00;;;;;10.60;102032.00;;;;9621831;30;20244;-77
2021/03/27 17:40:46;;;;;;;10.13;2.40;;;;;10.40;102030.00;;;;9620789;30;20204;-77
2021/03/27 17:46:16;;;;;;;5.40;1.93;;;;;10.20;102039.00;;;;9606838;30;20503;-76
2021/03/27 17:51:49;;;;;;;9.43;2.40;;;;;9.90;102046.00;;;;9620730;30;20575;-76
2021/03/27 17:56:59;;;;;;;8.60;2.47;;;;;9.60;102053.00;;;;9634683;30;20634;-76
2021/03/27 18:02:12;;;;;;;15.47;3.10;;;;;9.30;102058.00;;;;9619896;30;20253;-76
2021/03/27 18:07:18;;;;;;;10.47;2.63;;;;;9.10;102057.00;;;;9634121;30;20216;-76
2021/03/27 18:12:31;;;;;;;10.17;2.17;;;;;8.90;102067.00;;;;9620111;30;20249;-76
2021/03/27 18:17:45;;;;;;;9.50;2.33;;;;;8.80;102065.00;;;;9638055;30;20208;-76
2021/03/27 18:22:54;;;;;;;9.03;2.30;;;;;8.50;102069.00;;;;9613534;30;20693;-77
2021/03/27 18:28:22;;;;;;;9.60;2.40;;;;;8.40;102080.00;;;;9623830;30;20244;-76
2021/03/27 18:33:49;;;;;;;14.50;3.03;;;;;8.10;102074.00;;;;9605083;30;20256;-76
2021/03/27 18:39:45;;;;;;;10.17;2.30;;;;;7.90;102086.00;;;;9619877;30;20220;-77
2021/03/27 18:44:50;;;;;;;11.70;3.70;;;;;7.80;102084.00;;;;9517186;30;20214;-76
2021/03/27 18:49:53;;;;;;;12.43;4.33;;;;;7.60;102099.00;;;;9590520;30;20220;-76
2021/03/27 18:55:08;;;;;;;9.43;3.33;;;;;7.50;102106.00;;;;9584327;30;20308;-76
2021/03/27 19:00:34;;;;;;;16.47;3.73;;;;;7.50;102111.00;;;;9616988;30;20260;-76
2021/03/27 19:05:47;;;;;;;10.13;3.47;;;;;7.60;102115.00;;;;9583352;31;20683;-77
2021/03/27 19:10:56;;;;;;;10.80;3.47;;;;;7.80;102119.00;;;;9582515;31;20763;-76
2021/03/27 19:16:19;;;;;;;8.97;3.07;;;;;8.00;102129.00;;;;9582939;30;20217;-76
2021/03/27 19:21:34;;;;;;;10.83;3.47;;;;;8.20;102125.00;;;;9597712;30;20297;-76
2021/03/27 19:27:01;;;;;;;18.83;4.33;;;;;8.20;102128.00;;;;9597712;30;20253;-76
2021/03/27 19:32:09;;;;;;;15.40;3.80;;;;;8.30;102132.00;;;;9567106;31;20233;-76
2021/03/27 19:37:15;;;;;;;14.23;3.43;;;;;8.30;102140.00;;;;9597819;30;20233;-77
2021/03/27 19:42:30;;;;;;;11.77;3.80;;;;;8.40;102145.00;;;;9584197;30;20666;-76
2021/03/27 19:47:44;;;;;;;12.63;3.33;;;;;8.40;102155.00;;;;9597237;30;20208;-76
2021/03/27 19:53:03;;;;;;;14.90;3.23;;;;;8.30;102149.00;;;;9583421;31;20254;-77
2021/03/27 19:58:18;;;;;;;6.67;2.70;;;;;8.20;102154.00;;;;9604008;30;20240;-76
2021/03/27 20:03:47;;;;;;;14.20;3.40;;;;;8.20;102159.00;;;;9604545;30;20219;-76
2021/03/27 20:09:10;;;;;;;10.47;3.00;;;;;8.10;102160.00;;;;9603935;30;20238;-76
2021/03/27 20:14:24;;;;;;;12.77;3.27;;;;;8.10;102162.00;;;;9603418;30;20211;-77
2021/03/27 20:19:37;;;;;;;11.80;2.73;;;;;8.10;102169.00;;;;9603846;30;20295;-77
2021/03/27 20:25:02;;;;;;;10.50;2.90;;;;;8.20;102167.00;;;;9608699;30;20294;-77
2021/03/27 20:30:18;;;;;;;11.23;3.40;;;;;8.20;102177.00;;;;9595511;30;20280;-76
2021/03/27 20:35:41;;;;;;;9.80;3.00;;;;;8.10;102171.00;;;;9609125;30;20208;-77
2021/03/27 20:41:13;;;;;;;10.63;2.70;;;;;8.00;102172.00;;;;9595246;30;20202;-77
2021/03/27 20:46:40;;;;;;;8.00;2.60;;;;;7.80;102183.00;;;;9575525;30;20225;-77
2021/03/27 20:52:15;;;;;;;15.07;3.50;;;;;7.70;102172.00;;;;9623437;30;20276;-77
2021/03/27 20:57:35;;;;;;;19.00;4.20;;;;;7.60;102172.00;;;;9636845;30;20229;-77
2021/03/27 21:02:46;;;;;;;8.83;2.40;;;;;7.50;102179.00;;;;9622666;30;20625;-76
2021/03/27 21:07:56;;;;;;;11.90;3.23;;;;;7.40;102185.00;;;;9622218;30;20198;-77
2021/03/27 21:13:31;;;;;;;13.60;4.00;;;;;7.40;102193.00;;;;9607941;30;20241;-76
2021/03/27 21:18:40;;;;;;;10.00;3.50;;;;;7.30;102191.00;;;;9636282;30;20217;-77
2021/03/27 21:24:13;;;;;;;7.13;2.37;;;;;7.30;102186.00;;;;9621458;30;20292;-76
2021/03/27 21:29:39;;;;;;;11.53;2.90;;;;;7.30;102184.00;;;;9620954;30;20220;-76
2021/03/27 21:35:03;;;;;;;13.83;3.43;;;;;7.20;102189.00;;;;9635105;30;20216;-76
2021/03/27 21:40:15;;;;;;;11.03;3.87;;;;;7.00;102182.00;;;;9635427;30;20292;-77
2021/03/27 21:45:31;;;;;;;12.27;3.97;;;;;6.90;102177.00;;;;9621703;30;20582;-76
2021/03/27 21:50:39;;;;;;;19.23;4.67;;;;;6.80;102176.00;;;;9620466;30;20236;-76
2021/03/27 21:55:58;;;;;;;14.60;3.43;;;;;6.60;102177.00;;;;9621465;30;20209;-76
2021/03/27 22:01:10;;;;;;;15.67;4.83;;;;;6.60;102178.00;;;;9634148;30;20236;-77
2021/03/27 22:06:39;;;;;;;12.37;4.00;;;;;6.50;102173.00;;;;9633857;30;20279;-76
2021/03/27 22:11:52;;;;;;;11.80;3.53;;;;;6.40;102189.00;;;;9633723;30;20698;-76
2021/03/27 22:16:59;;;;;;;10.53;4.00;;;;;6.30;102196.00;;;;9634277;30;20209;-76
2021/03/27 22:22:20;;;;;;;13.47;3.53;;;;;6.30;102201.00;;;;9634160;30;20201;-76
2021/03/27 22:27:40;;;;;;;13.17;3.77;;;;;6.40;102207.00;;;;9633397;30;20196;-77
2021/03/27 22:33:07;;;;;;;8.43;2.90;;;;;6.50;102189.00;;;;9619510;30;20221;-76
2021/03/27 22:38:13;;;;;;;9.70;2.97;;;;;6.60;102198.00;;;;9620706;30;20220;-76
2021/03/27 22:43:25;;;;;;;14.00;3.53;;;;;6.70;102197.00;;;;9618549;30;20209;-77
2021/03/27 22:48:39;;;;;;;9.20;3.00;;;;;6.70;102205.00;;;;9618696;30;20205;-76
2021/03/27 22:54:03;;;;;;;10.07;2.40;;;;;6.70;102204.00;;;;9604232;30;20217;-76
2021/03/27 22:59:27;;;;;;;13.20;3.53;;;;;6.70;102203.00;;;;9618463;30;20240;-76
2021/03/27 23:04:39;;;;;;;10.53;2.53;;;;;6.60;102198.00;;;;9590561;30;20218;-76
2021/03/27 23:09:44;;;;;;;10.97;2.20;;;;;6.60;102188.00;;;;9612055;30;20687;-76
2021/03/27 23:14:48;;;;;;;9.10;3.03;;;;;6.70;102187.00;;;;9629418;30;20213;-76
2021/03/27 23:19:51;;;;;;;10.77;2.37;;;;;6.70;102188.00;;;;9618501;30;20748;-76
2021/03/27 23:25:07;;;;;;;13.67;3.00;;;;;6.70;102182.00;;;;9632793;30;20265;-76
2021/03/27 23:30:27;;;;;;;9.63;2.90;;;;;6.90;102179.00;;;;9632382;30;20268;-76
2021/03/27 23:35:54;;;;;;;11.40;3.13;;;;;6.90;102168.00;;;;9603793;30;20267;-76
2021/03/27 23:41:15;;;;;;;12.90;2.87;;;;;7.00;102179.00;;;;9603541;30;20614;-76
2021/03/27 23:46:17;;;;;;;14.43;3.27;;;;;7.00;102194.00;;;;9609246;30;20220;-76
2021/03/27 23:51:27;;;;;;;11.43;3.67;;;;;7.10;102182.00;;;;9584126;31;20232;-76
2021/03/27 23:56:46;;;;;;;7.00;2.20;;;;;7.20;102191.00;;;;9586232;30;20218;-76
